createdAt,value
2018-04-10T00:00:20.612Z,73.13
2018-04-10T00:02:48.851Z,73.74
2018-04-10T00:05:17.817Z,73.43
2018-04-10T00:07:47.596Z,73.60
2018-04-10T00:10:15.910Z,74.17
2018-04-10T00:12:44.081Z,74.38
2018-04-10T00:15:12.316Z,74.23
2018-04-10T00:17:41.252Z,74.47
2018-04-10T00:20:09.479Z,74.42
2018-04-10T00:22:37.684Z,74.26
2018-04-10T00:25:06.918Z,74.09
2018-04-10T00:27:35.120Z,73.86
2018-04-10T00:30:06.029Z,73.42
2018-04-10T00:32:34.329Z,73.20
2018-04-10T00:35:02.556Z,73.58
2018-04-10T00:37:31.528Z,74.17
2018-04-10T00:39:59.717Z,73.94
2018-04-10T00:42:27.939Z,73.82
2018-04-10T00:44:57.117Z,74.21
2018-04-10T00:47:26.162Z,74.28
2018-04-10T00:49:54.489Z,74.32
2018-04-10T00:52:24.872Z,74.13
2018-04-10T00:54:53.233Z,74.03
2018-04-10T00:57:21.420Z,74.90
2018-04-10T00:59:49.705Z,74.82
2018-04-10T01:02:19.951Z,74.53
2018-04-10T01:04:50.972Z,74.46
2018-04-10T01:07:20.887Z,75.16
2018-04-10T01:09:49.888Z,75.74
2018-04-10T01:12:19.679Z,75.89
2018-04-10T01:14:47.839Z,75.70
2018-04-10T01:17:16.069Z,75.61
2018-04-10T01:19:45.988Z,74.93
2018-04-10T01:22:14.925Z,75.04
2018-04-10T01:24:43.122Z,75.46
2018-04-10T01:27:11.325Z,75.10
2018-04-10T01:29:41.241Z,74.97
2018-04-10T01:32:09.415Z,74.83
2018-04-10T01:34:37.584Z,75.17
2018-04-10T01:37:05.761Z,75.34
2018-04-10T01:39:33.931Z,75.39
2018-04-10T01:42:03.844Z,75.64
2018-04-10T01:44:32.044Z,75.94
2018-04-10T01:49:37.288Z,77.21
2018-04-10T01:52:06.450Z,77.49
2018-04-10T01:54:34.682Z,77.67
2018-04-10T01:57:03.672Z,77.13
2018-04-10T01:59:32.573Z,77.15
2018-04-10T02:02:00.858Z,77.26
2018-04-10T02:04:31.674Z,77.28
2018-04-10T02:06:59.858Z,77.01
2018-04-10T02:09:45.529Z,76.80
2018-04-10T02:12:13.712Z,76.31
2018-04-10T02:14:41.890Z,76.45
2018-04-10T02:17:10.054Z,76.46
2018-04-10T02:19:38.311Z,76.03
2018-04-10T02:22:07.133Z,75.34
2018-04-10T02:24:38.229Z,75.30
2018-04-10T02:27:06.443Z,75.62
2018-04-10T02:29:34.608Z,76.44
2018-04-10T02:32:02.820Z,77.16
2018-04-10T02:34:30.995Z,77.26
2018-04-10T02:36:59.241Z,77.46
2018-04-10T02:39:29.043Z,77.39
2018-04-10T02:41:57.983Z,77.28
2018-04-10T02:44:26.179Z,77.37
2018-04-10T02:46:54.343Z,77.27
2018-04-10T02:49:22.525Z,77.21
2018-04-10T02:51:50.869Z,77.20
2018-04-10T02:54:19.053Z,77.48
2018-04-10T02:56:49.729Z,77.11
2018-04-10T02:59:17.982Z,77.09
2018-04-10T03:01:46.169Z,76.83
2018-04-10T03:04:14.359Z,76.77
2018-04-10T03:06:42.577Z,76.50
2018-04-10T03:09:10.733Z,76.19
2018-04-10T03:11:38.951Z,76.58
2018-04-10T03:14:07.167Z,76.59
2018-04-10T03:16:35.389Z,76.58
2018-04-10T03:19:03.556Z,77.16
2018-04-10T03:21:32.493Z,77.95
2018-04-10T03:24:02.269Z,78.25
2018-04-10T03:26:30.578Z,78.17
2018-04-10T03:28:58.815Z,78.30
2018-04-10T03:31:27.001Z,78.04
2018-04-10T03:33:57.583Z,77.68
2018-04-10T03:36:27.695Z,78.08
2018-04-10T03:38:56.075Z,78.30
2018-04-10T03:41:24.561Z,78.21
2018-04-10T03:43:55.785Z,78.38
2018-04-10T03:46:24.004Z,78.60
2018-04-10T03:48:52.237Z,78.44
2018-04-10T03:51:20.500Z,78.12
2018-04-10T03:53:48.726Z,77.57
2018-04-10T03:56:18.674Z,77.82
2018-04-10T03:58:46.994Z,78.00
2018-04-10T04:01:15.162Z,77.64
2018-04-10T04:03:43.369Z,77.60
2018-04-10T04:06:13.452Z,78.49
2018-04-10T04:08:41.813Z,78.04
2018-04-10T04:11:10.172Z,78.04
2018-04-10T04:13:38.430Z,77.68
2018-04-10T04:16:09.016Z,77.54
2018-04-10T04:18:49.165Z,78.39
2018-04-10T04:21:32.673Z,78.77
2018-04-10T04:24:01.716Z,78.71
2018-04-10T04:26:29.988Z,78.10
2018-04-10T04:28:58.197Z,78.46
2018-04-10T04:31:26.425Z,78.74
2018-04-10T04:33:54.626Z,79.14
2018-04-10T04:36:22.866Z,79.40
2018-04-10T04:38:52.799Z,79.21
2018-04-10T04:41:20.983Z,78.86
2018-04-10T04:43:49.216Z,78.85
2018-04-10T04:46:17.744Z,78.30
2018-04-10T04:48:46.026Z,78.04
2018-04-10T04:51:16.901Z,78.31
2018-04-10T04:53:46.931Z,78.22
2018-04-10T04:56:17.066Z,77.85
2018-04-10T04:58:46.821Z,78.47
2018-04-10T05:01:14.998Z,78.54
2018-04-10T05:03:43.260Z,78.36
2018-04-10T05:06:14.126Z,78.01
2018-04-10T05:08:42.335Z,77.93
2018-04-10T05:11:13.567Z,78.36
2018-04-10T05:13:43.933Z,78.67
2018-04-10T05:16:19.441Z,78.44
2018-04-10T05:18:50.273Z,77.92
2018-04-10T05:21:18.481Z,77.34
2018-04-10T05:23:47.853Z,77.77
2018-04-10T05:26:16.797Z,77.85
2018-04-10T05:28:45.007Z,77.43
2018-04-10T05:31:13.295Z,77.36
2018-04-10T05:33:41.545Z,77.59
2018-04-10T05:36:09.785Z,77.85
2018-04-10T05:38:40.823Z,77.94
2018-04-10T05:41:09.017Z,77.77
2018-04-10T05:43:37.947Z,77.78
2018-04-10T05:46:09.678Z,77.75
2018-04-10T05:48:37.904Z,77.24
2018-04-10T05:51:06.077Z,77.05
2018-04-10T05:53:34.263Z,76.48
2018-04-10T05:56:04.242Z,76.83
2018-04-10T05:58:34.035Z,77.34
2018-04-10T06:01:02.241Z,77.08
2018-04-10T06:03:30.413Z,76.85
2018-04-10T06:06:00.475Z,75.99
2018-04-10T06:08:28.843Z,75.84
2018-04-10T06:10:58.664Z,75.31
2018-04-10T06:13:26.847Z,75.39
2018-04-10T06:15:55.020Z,75.45
2018-04-10T06:18:25.896Z,76.30
2018-04-10T06:20:54.109Z,76.84
2018-04-10T06:23:22.297Z,76.86
2018-04-10T06:25:50.460Z,76.91
2018-04-10T06:28:20.374Z,76.86
2018-04-10T06:30:48.584Z,76.83
2018-04-10T06:33:16.796Z,76.51
2018-04-10T06:35:44.955Z,74.38
2018-04-10T06:38:13.153Z,73.51
2018-04-10T06:40:41.333Z,73.42
2018-04-10T06:43:11.279Z,73.13
2018-04-10T06:45:39.501Z,73.17
2018-04-10T06:48:07.735Z,73.94
2018-04-10T06:50:35.917Z,74.15
2018-04-10T06:53:04.119Z,74.26
2018-04-10T06:55:32.397Z,74.53
2018-04-10T06:58:00.597Z,73.68
2018-04-10T07:00:28.796Z,73.51
2018-04-10T07:02:56.997Z,73.87
2018-04-10T07:05:25.213Z,74.04
2018-04-10T07:07:54.333Z,74.02
2018-04-10T07:10:22.659Z,74.66
2018-04-10T07:12:51.673Z,74.54
2018-04-10T07:15:19.915Z,74.54
2018-04-10T07:17:50.017Z,75.01
2018-04-10T07:20:18.240Z,74.68
2018-04-10T07:22:47.428Z,74.63
2018-04-10T07:25:16.329Z,74.08
2018-04-10T07:27:46.721Z,73.75
2018-04-10T07:30:15.718Z,74.43
2018-04-10T07:32:44.005Z,73.44
2018-04-10T07:35:12.191Z,73.38
2018-04-10T07:37:40.383Z,73.83
2018-04-10T07:40:08.575Z,73.24
2018-04-10T07:42:36.768Z,72.74
2018-04-10T07:45:04.992Z,71.57
2018-04-10T07:47:33.188Z,71.20
2018-04-10T07:50:02.613Z,71.41
2018-04-10T07:52:32.366Z,71.47
2018-04-10T07:55:01.723Z,69.80
2018-04-10T07:57:30.058Z,69.79
2018-04-10T07:59:59.094Z,69.08
2018-04-10T08:02:27.356Z,69.66
2018-04-10T08:04:55.621Z,69.16
2018-04-10T08:07:25.490Z,68.73
2018-04-10T08:09:53.737Z,67.69
2018-04-10T08:12:23.594Z,68.43
2018-04-10T08:14:51.860Z,67.50
2018-04-10T08:17:21.667Z,68.60
2018-04-10T08:19:49.866Z,68.04
2018-04-10T08:22:18.150Z,69.38
2018-04-10T08:24:46.339Z,68.06
2018-04-10T08:27:16.306Z,68.18
2018-04-10T08:29:44.512Z,67.15
2018-04-10T08:32:12.754Z,67.70
2018-04-10T08:34:41.761Z,67.81
2018-04-10T08:37:12.594Z,66.05
2018-04-10T08:39:43.777Z,66.32
2018-04-10T08:42:14.205Z,66.34
2018-04-10T08:44:43.943Z,65.15
2018-04-10T08:47:13.213Z,65.06
2018-04-10T08:49:43.195Z,66.11
2018-04-10T08:52:11.450Z,66.32
2018-04-10T08:54:39.776Z,65.28
2018-04-10T08:57:07.966Z,65.11
2018-04-10T08:59:36.970Z,64.84
2018-04-10T09:02:05.143Z,63.86
2018-04-10T09:04:33.367Z,63.84
2018-04-10T09:07:01.559Z,63.96
2018-04-10T09:09:29.789Z,64.52
2018-04-10T09:11:59.935Z,64.30
2018-04-10T09:14:28.162Z,63.64
2018-04-10T09:16:56.361Z,63.72
2018-04-10T09:19:24.553Z,63.24
2018-04-10T09:21:52.865Z,63.15
2018-04-10T09:24:21.111Z,64.42
2018-04-10T09:26:49.321Z,64.96
2018-04-10T09:29:19.136Z,64.77
2018-04-10T09:31:47.456Z,64.07
2018-04-10T09:34:16.407Z,64.06
2018-04-10T09:36:44.675Z,63.00
2018-04-10T09:39:15.477Z,63.09
2018-04-10T09:41:43.783Z,63.20
2018-04-10T09:44:12.010Z,62.62
2018-04-10T09:46:43.536Z,64.47
2018-04-10T09:49:11.826Z,62.90
2018-04-10T09:51:41.823Z,62.43
2018-04-10T09:54:10.057Z,62.39
2018-04-10T09:56:38.259Z,62.63
2018-04-10T09:59:07.252Z,62.81
2018-04-10T10:01:36.738Z,62.81
2018-04-10T10:04:07.616Z,61.78
2018-04-10T10:06:40.606Z,62.40
2018-04-10T10:09:09.675Z,63.19
2018-04-10T10:11:37.906Z,62.83
2018-04-10T10:14:06.120Z,62.26
2018-04-10T10:16:34.504Z,62.09
2018-04-10T10:19:05.356Z,63.34
2018-04-10T10:21:33.646Z,63.33
2018-04-10T10:24:01.885Z,62.27
2018-04-10T10:26:31.894Z,62.62
2018-04-10T10:29:00.097Z,62.06
2018-04-10T10:31:28.348Z,61.96
2018-04-10T10:33:59.191Z,61.98
2018-04-10T10:36:28.453Z,61.79
2018-04-10T10:38:58.436Z,61.97
2018-04-10T10:41:28.315Z,61.46
2018-04-10T10:43:56.567Z,62.29
2018-04-10T10:46:24.857Z,62.43
2018-04-10T10:48:53.144Z,61.65
2018-04-10T10:51:21.370Z,62.09
2018-04-10T10:53:50.159Z,60.95
2018-04-10T10:56:18.523Z,61.38
2018-04-10T10:58:46.801Z,60.89
2018-04-10T11:01:17.797Z,61.27
2018-04-10T11:03:46.796Z,61.21
2018-04-10T11:06:15.022Z,61.07
2018-04-10T11:08:43.976Z,60.50
2018-04-10T11:11:12.172Z,61.42
2018-04-10T11:13:40.366Z,60.83
2018-04-10T11:16:08.667Z,60.48
2018-04-10T11:18:37.306Z,61.96
2018-04-10T11:21:06.412Z,61.12
2018-04-10T11:23:34.610Z,61.05
2018-04-10T11:26:02.835Z,60.28
2018-04-10T11:28:31.145Z,60.95
2018-04-10T11:30:59.627Z,61.86
2018-04-10T11:33:27.889Z,61.87
2018-04-10T11:35:56.087Z,61.54
2018-04-10T11:38:24.448Z,61.03
2018-04-10T11:40:52.778Z,61.04
2018-04-10T11:43:21.086Z,60.40
2018-04-10T11:45:49.329Z,60.45
2018-04-10T11:48:17.542Z,60.07
2018-04-10T11:50:45.799Z,60.18
2018-04-10T11:53:14.059Z,60.28
2018-04-10T11:55:42.289Z,60.38
2018-04-10T11:58:11.328Z,59.71
2018-04-10T12:00:40.030Z,60.45
2018-04-10T12:03:10.158Z,60.90
2018-04-10T12:05:38.463Z,60.13
2018-04-10T12:08:07.736Z,60.08
2018-04-10T12:10:37.769Z,60.97
2018-04-10T12:13:06.017Z,60.26
2018-04-10T12:15:34.284Z,60.92
2018-04-10T12:18:03.540Z,61.83
2018-04-10T12:20:31.755Z,62.14
2018-04-10T12:23:00.021Z,62.72
2018-04-10T12:25:28.231Z,62.02
2018-04-10T12:27:59.005Z,62.02
2018-04-10T12:30:27.197Z,62.94
2018-04-10T12:32:55.527Z,62.55
2018-04-10T12:35:24.494Z,62.17
2018-04-10T12:37:52.805Z,61.55
2018-04-10T12:40:21.040Z,61.64
2018-04-10T12:42:54.277Z,60.55
2018-04-10T12:45:23.457Z,61.23
2018-04-10T12:47:51.681Z,60.88
2018-04-10T12:50:19.903Z,61.07
2018-04-10T12:52:48.280Z,60.38
2018-04-10T12:55:16.565Z,59.92
2018-04-10T12:57:44.798Z,59.94
2018-04-10T13:00:13.109Z,59.65
2018-04-10T13:02:41.423Z,60.10
2018-04-10T13:05:09.794Z,58.81
2018-04-10T13:07:38.100Z,59.44
2018-04-10T13:10:06.309Z,59.10
2018-04-10T13:12:36.268Z,59.78
2018-04-10T13:15:04.552Z,58.84
2018-04-10T13:17:32.778Z,58.97
2018-04-10T13:20:00.966Z,57.81
2018-04-10T13:22:29.276Z,58.14
2018-04-10T13:24:57.629Z,59.49
2018-04-10T13:27:26.707Z,58.92
2018-04-10T13:29:58.737Z,58.36
2018-04-10T13:32:27.010Z,58.22
2018-04-10T13:34:55.232Z,58.91
2018-04-10T13:37:23.467Z,58.07
2018-04-10T13:39:51.775Z,57.75
2018-04-10T13:42:22.608Z,57.51
2018-04-10T13:44:50.856Z,57.40
2018-04-10T13:47:20.819Z,56.85
2018-04-10T13:52:23.527Z,57.20
2018-04-10T13:54:53.524Z,57.06
2018-04-10T13:57:24.347Z,56.55
2018-04-10T13:59:55.803Z,56.39
2018-04-10T14:02:24.044Z,55.99
2018-04-10T14:04:53.992Z,55.71
2018-04-10T14:07:22.244Z,56.39
2018-04-10T14:09:50.515Z,56.46
2018-04-10T14:12:20.416Z,55.84
2018-04-10T14:14:51.248Z,55.19
2018-04-10T14:17:20.239Z,55.20
2018-04-10T14:19:50.491Z,53.52
2018-04-10T14:22:20.417Z,54.24
2018-04-10T14:24:51.535Z,54.07
2018-04-10T14:27:21.603Z,53.33
2018-04-10T14:29:49.981Z,53.15
2018-04-10T14:32:18.327Z,52.45
2018-04-10T14:34:47.733Z,50.13
2018-04-10T14:37:15.930Z,48.87
2018-04-10T14:39:45.834Z,47.75
2018-04-10T14:42:14.054Z,45.23
2018-04-10T14:44:43.064Z,46.81
2018-04-10T14:47:13.884Z,47.47
2018-04-10T14:49:43.028Z,46.55
2018-04-10T14:52:11.319Z,46.91
2018-04-10T14:54:39.681Z,46.52
2018-04-10T14:57:07.953Z,46.34
2018-04-10T14:59:36.279Z,47.22
2018-04-10T15:02:06.265Z,47.06
2018-04-10T15:04:35.238Z,46.53
2018-04-10T15:07:03.469Z,46.74
2018-04-10T15:09:32.961Z,46.66
2018-04-10T15:12:01.250Z,45.99
2018-04-10T15:14:31.155Z,46.07
2018-04-10T15:16:59.381Z,47.14
2018-04-10T15:19:28.493Z,48.04
2018-04-10T15:21:56.806Z,47.42
2018-04-10T15:24:25.027Z,46.82
2018-04-10T15:26:53.252Z,47.10
2018-04-10T15:29:21.502Z,47.46
2018-04-10T15:31:51.483Z,47.53
2018-04-10T15:34:19.709Z,47.57
2018-04-10T15:36:49.948Z,47.48
2018-04-10T15:39:19.819Z,47.74
2018-04-10T15:41:49.789Z,48.01
2018-04-10T15:44:17.997Z,48.46
2018-04-10T15:46:46.253Z,48.52
2018-04-10T15:49:14.501Z,48.91
2018-04-10T15:51:44.360Z,48.79
2018-04-10T15:54:15.225Z,49.00
2018-04-10T15:56:49.013Z,48.62
2018-04-10T15:59:17.230Z,49.05
2018-04-10T16:01:47.046Z,49.61
2018-04-10T16:04:15.244Z,49.66
2018-04-10T16:06:43.595Z,49.53
2018-04-10T16:09:11.817Z,49.57
2018-04-10T16:11:40.092Z,49.46
2018-04-10T16:14:08.350Z,48.93
2018-04-10T16:16:36.537Z,49.15
2018-04-10T16:19:05.041Z,49.61
2018-04-10T16:21:33.280Z,49.64
2018-04-10T16:24:03.239Z,49.84
2018-04-10T16:26:32.173Z,49.50
2018-04-10T16:29:01.167Z,49.88
2018-04-10T16:31:30.587Z,50.29
2018-04-10T16:34:01.106Z,50.31
2018-04-10T16:36:31.068Z,50.57
2018-04-10T16:38:59.446Z,50.83
2018-04-10T16:41:27.921Z,51.37
2018-04-10T16:43:56.192Z,50.87
2018-04-10T16:46:24.448Z,51.18
2018-04-10T16:48:52.717Z,51.37
2018-04-10T16:51:20.920Z,51.53
2018-04-10T16:53:49.848Z,51.80
2018-04-10T16:56:18.082Z,52.04
2018-04-10T16:58:47.256Z,52.33
2018-04-10T17:01:15.588Z,52.57
2018-04-10T17:03:45.548Z,52.80
2018-04-10T17:06:13.885Z,52.97
2018-04-10T17:08:44.793Z,53.14
2018-04-10T17:11:14.950Z,53.58
2018-04-10T17:13:43.695Z,54.10
2018-04-10T17:18:52.081Z,54.31
2018-04-10T17:21:23.361Z,54.71
2018-04-10T17:23:55.841Z,55.19
2018-04-10T17:26:24.219Z,55.56
2018-04-10T17:28:55.352Z,55.74
2018-04-10T17:31:27.626Z,56.17
2018-04-10T17:33:59.287Z,56.34
2018-04-10T17:36:29.167Z,56.82
2018-04-10T17:38:57.445Z,57.10
2018-04-10T17:41:25.686Z,57.38
2018-04-10T17:43:54.023Z,57.88
2018-04-10T17:46:22.645Z,58.22
2018-04-10T17:48:52.042Z,58.57
2018-04-10T17:51:22.056Z,58.76
2018-04-10T17:53:50.292Z,59.03
2018-04-10T17:56:19.786Z,59.20
2018-04-10T17:58:48.268Z,59.43
2018-04-10T18:01:16.494Z,59.59
2018-04-10T18:03:44.729Z,59.95
2018-04-10T18:06:13.053Z,60.08
2018-04-10T18:08:41.293Z,60.36
2018-04-10T18:11:09.607Z,60.56
2018-04-10T18:13:39.684Z,60.61
2018-04-10T18:16:07.965Z,61.00
2018-04-10T18:18:37.925Z,61.00
2018-04-10T18:21:07.394Z,61.28
2018-04-10T18:23:35.798Z,61.43
2018-04-10T18:26:04.873Z,61.78
2018-04-10T18:28:33.252Z,62.08
2018-04-10T18:31:03.430Z,62.30
2018-04-10T18:33:32.493Z,62.53
2018-04-10T18:36:01.077Z,62.38
2018-04-10T18:38:29.661Z,62.65
2018-04-10T18:40:58.008Z,62.92
2018-04-10T18:43:27.161Z,62.98
2018-04-10T18:45:55.540Z,63.32
2018-04-10T18:48:23.816Z,63.22
2018-04-10T18:50:52.320Z,63.45
2018-04-10T18:53:20.763Z,63.32
2018-04-10T18:55:49.142Z,64.16
2018-04-10T18:58:17.429Z,64.41
2018-04-10T19:00:46.018Z,64.55
2018-04-10T19:03:14.239Z,64.36
2018-04-10T19:05:46.454Z,64.48
2018-04-10T19:08:14.881Z,64.67
2018-04-10T19:10:43.320Z,64.80
2018-04-10T19:13:11.619Z,65.09
2018-04-10T19:15:41.729Z,65.16
2018-04-10T19:20:44.409Z,65.30
2018-04-10T19:23:13.170Z,65.36
2018-04-10T19:25:42.426Z,65.43
2018-04-10T19:28:10.913Z,65.73
2018-04-10T19:30:39.394Z,65.97
2018-04-10T19:33:08.397Z,65.94
2018-04-10T19:35:39.290Z,65.72
2018-04-10T19:38:07.570Z,66.01
2018-04-10T19:40:37.547Z,66.34
2018-04-10T19:43:05.857Z,66.78
2018-04-10T19:45:36.623Z,66.81
2018-04-10T19:48:05.136Z,66.80
2018-04-10T19:50:33.516Z,66.81
2018-04-10T19:53:01.867Z,67.19
2018-04-10T19:55:30.333Z,67.62
2018-04-10T19:57:58.767Z,68.22
2018-04-10T20:00:27.066Z,69.44
2018-04-10T20:02:55.686Z,69.52
2018-04-10T20:05:24.783Z,69.85
2018-04-10T20:07:54.704Z,69.72
2018-04-10T20:10:22.935Z,69.12
2018-04-10T20:12:52.134Z,69.17
2018-04-10T20:15:20.373Z,68.43
2018-04-10T20:17:51.205Z,68.15
2018-04-10T20:20:19.547Z,67.64
2018-04-10T20:22:47.795Z,67.58
2018-04-10T20:25:16.070Z,67.84
2018-04-10T20:27:47.903Z,67.58
2018-04-10T20:30:16.101Z,68.12
2018-04-10T20:32:49.394Z,67.88
2018-04-10T20:35:17.836Z,68.13
2018-04-10T20:37:46.104Z,67.98
2018-04-10T20:40:14.478Z,68.00
2018-04-10T20:42:43.233Z,68.36
2018-04-10T20:45:14.660Z,68.88
2018-04-10T20:47:50.441Z,69.23
2018-04-10T20:50:18.919Z,69.37
2018-04-10T20:52:47.326Z,69.47
2018-04-10T20:55:15.849Z,69.71
2018-04-10T20:57:44.134Z,69.69
2018-04-10T21:00:14.114Z,69.75
2018-04-10T21:02:42.388Z,69.83
2018-04-10T21:05:13.269Z,70.04
2018-04-10T21:07:42.258Z,70.33
2018-04-10T21:10:11.566Z,70.91
2018-04-10T21:12:39.848Z,70.97
2018-04-10T21:15:08.112Z,70.66
2018-04-10T21:17:36.519Z,70.64
2018-04-10T21:20:04.795Z,70.52
2018-04-10T21:22:32.982Z,70.13
2018-04-10T21:25:01.973Z,70.02
2018-04-10T21:27:30.210Z,69.95
2018-04-10T21:29:58.442Z,70.10
2018-04-10T21:32:28.431Z,69.74
2018-04-10T21:34:56.613Z,69.73
2018-04-10T21:37:24.844Z,69.84
2018-04-10T21:39:53.052Z,69.83
2018-04-10T21:42:21.391Z,69.79
2018-04-10T21:44:49.583Z,69.82
2018-04-10T21:47:18.531Z,69.96
2018-04-10T21:49:46.735Z,69.99
2018-04-10T21:52:14.915Z,70.33
2018-04-10T21:54:43.885Z,70.05
2018-04-10T21:57:12.167Z,70.25
2018-04-10T21:59:40.366Z,70.36
2018-04-10T22:02:08.585Z,70.25
2018-04-10T22:04:36.817Z,70.58
2018-04-10T22:07:05.031Z,70.71
2018-04-10T22:09:33.174Z,70.49
2018-04-10T22:12:02.199Z,70.93
2018-04-10T22:14:30.351Z,71.06
2018-04-10T22:16:58.539Z,71.15
2018-04-10T22:19:39.233Z,71.35
2018-04-10T22:22:07.391Z,71.00
2018-04-10T22:24:35.535Z,70.90
2018-04-10T22:27:03.730Z,70.83
2018-04-10T22:29:31.872Z,70.75
2018-04-10T22:32:00.123Z,71.09
2018-04-10T22:34:28.272Z,71.02
2018-04-10T22:36:56.441Z,70.99
2018-04-10T22:39:24.654Z,71.16
2018-04-10T22:41:52.797Z,71.76
2018-04-10T22:44:20.955Z,72.27
2018-04-10T22:46:49.105Z,72.69
2018-04-10T22:49:17.295Z,72.57
2018-04-10T22:51:45.481Z,73.10
2018-04-10T22:54:13.631Z,73.60
2018-04-10T22:56:41.787Z,73.51
2018-04-10T22:59:09.938Z,73.76
2018-04-10T23:01:38.143Z,73.69
2018-04-10T23:04:07.005Z,73.44
2018-04-10T23:06:35.188Z,73.91
2018-04-10T23:09:03.343Z,74.27
2018-04-10T23:11:31.507Z,74.36
2018-04-10T23:13:59.693Z,74.21
2018-04-10T23:16:27.845Z,74.29
2018-04-10T23:18:56.009Z,74.35
2018-04-10T23:21:31.153Z,74.45
2018-04-10T23:23:59.313Z,74.28
2018-04-10T23:26:27.481Z,74.12
2018-04-10T23:28:55.664Z,74.53
2018-04-10T23:31:23.848Z,74.63
2018-04-10T23:33:52.002Z,74.49
2018-04-10T23:36:20.224Z,74.58
2018-04-10T23:38:48.448Z,74.79
2018-04-10T23:41:16.686Z,74.61
2018-04-10T23:43:45.029Z,74.98
2018-04-10T23:46:13.250Z,74.77
2018-04-10T23:48:41.401Z,75.09
2018-04-10T23:51:09.553Z,75.01
2018-04-10T23:53:38.483Z,75.41
2018-04-10T23:56:06.669Z,75.61
2018-04-10T23:58:34.829Z,75.79
